sensor_id;sensor_type;location;lat;lon;timestamp;temperature;humidity
4433;DHT22;2229;48.708;9.706;2023-02-01T00:01:42;4.30;99.90
4433;DHT22;2229;48.708;9.706;2023-02-01T00:04:10;4.30;99.90
4433;DHT22;2229;48.708;9.706;2023-02-01T00:06:37;4.40;99.90
4433;DHT22;2229;48.708;9.706;2023-02-01T00:09:04;4.40;99.90
4433;DHT22;2229;48.708;9.706;2023-02-01T00:11:32;4.30;99.90
4433;DHT22;2229;48.708;9.706;2023-02-01T00:13:59;4.30;99.90
4433;DHT22;2229;48.708;9.706;2023-02-01T00:16:28;4.30;99.90
4433;DHT22;2229;48.708;9.706;2023-02-01T00:19:00;4.40;99.90
4433;DHT22;2229;48.708;9.706;2023-02-01T00:21:28;4.40;99.90
4433;DHT22;2229;48.708;9.706;2023-02-01T00:23:55;4.40;99.90
4433;DHT22;2229;48.708;9.706;2023-02-01T00:26:27;4.40;99.90
4433;DHT22;2229;48.708;9.706;2023-02-01T00:28:57;4.20;99.90
4433;DHT22;2229;48.708;9.706;2023-02-01T00:31:24;4.40;99.90
4433;DHT22;2229;48.708;9.706;2023-02-01T00:33:52;4.40;99.90
4433;DHT22;2229;48.708;9.706;2023-02-01T00:36:21;4.40;99.90
4433;DHT22;2229;48.708;9.706;2023-02-01T00:38:49;4.40;99.90
4433;DHT22;2229;48.708;9.706;2023-02-01T00:41:18;4.40;99.90
4433;DHT22;2229;48.708;9.706;2023-02-01T00:43:46;4.40;99.90
4433;DHT22;2229;48.708;9.706;2023-02-01T00:46:15;4.40;99.90
4433;DHT22;2229;48.708;9.706;2023-02-01T00:48:43;4.30;99.90
4433;DHT22;2229;48.708;9.706;2023-02-01T00:51:12;4.30;99.90
4433;DHT22;2229;48.708;9.706;2023-02-01T00:53:41;4.30;99.90
4433;DHT22;2229;48.708;9.706;2023-02-01T00:56:09;4.30;99.90
4433;DHT22;2229;48.708;9.706;2023-02-01T00:58:36;4.30;99.90
4433;DHT22;2229;48.708;9.706;2023-02-01T01:01:06;4.30;99.90
4433;DHT22;2229;48.708;9.706;2023-02-01T01:03:35;4.30;99.90
4433;DHT22;2229;48.708;9.706;2023-02-01T01:06:04;4.30;99.90
4433;DHT22;2229;48.708;9.706;2023-02-01T01:08:32;4.30;99.90
4433;DHT22;2229;48.708;9.706;2023-02-01T01:11:05;4.30;99.90
4433;DHT22;2229;48.708;9.706;2023-02-01T01:13:33;4.30;99.90
4433;DHT22;2229;48.708;9.706;2023-02-01T01:16:02;4.30;99.90
4433;DHT22;2229;48.708;9.706;2023-02-01T01:18:31;4.30;99.90
4433;DHT22;2229;48.708;9.706;2023-02-01T01:20:59;4.30;99.90
4433;DHT22;2229;48.708;9.706;2023-02-01T01:23:27;4.30;99.90
4433;DHT22;2229;48.708;9.706;2023-02-01T01:25:54;4.20;99.90
4433;DHT22;2229;48.708;9.706;2023-02-01T01:28:23;4.30;99.90
4433;DHT22;2229;48.708;9.706;2023-02-01T01:30:50;4.30;99.90
4433;DHT22;2229;48.708;9.706;2023-02-01T01:33:17;4.20;99.90
4433;DHT22;2229;48.708;9.706;2023-02-01T01:35:45;4.30;99.90
4433;DHT22;2229;48.708;9.706;2023-02-01T01:38:12;4.30;99.90
4433;DHT22;2229;48.708;9.706;2023-02-01T01:40:40;4.30;99.90
4433;DHT22;2229;48.708;9.706;2023-02-01T01:43:13;4.30;99.90
4433;DHT22;2229;48.708;9.706;2023-02-01T01:45:42;4.30;99.90
4433;DHT22;2229;48.708;9.706;2023-02-01T01:48:15;4.30;99.90
4433;DHT22;2229;48.708;9.706;2023-02-01T01:50:46;4.20;99.90
4433;DHT22;2229;48.708;9.706;2023-02-01T01:53:18;4.30;99.90
4433;DHT22;2229;48.708;9.706;2023-02-01T01:55:48;4.00;99.90
4433;DHT22;2229;48.708;9.706;2023-02-01T01:58:21;4.20;99.90
4433;DHT22;2229;48.708;9.706;2023-02-01T02:00:50;4.20;99.90
4433;DHT22;2229;48.708;9.706;2023-02-01T02:03:20;4.20;99.90
4433;DHT22;2229;48.708;9.706;2023-02-01T02:05:50;4.30;99.90
4433;DHT22;2229;48.708;9.706;2023-02-01T02:08:18;4.30;99.90
4433;DHT22;2229;48.708;9.706;2023-02-01T02:10:46;4.30;99.90
4433;DHT22;2229;48.708;9.706;2023-02-01T02:13:31;4.30;99.90
4433;DHT22;2229;48.708;9.706;2023-02-01T02:16:26;4.30;99.90
4433;DHT22;2229;48.708;9.706;2023-02-01T02:19:15;4.30;99.90
4433;DHT22;2229;48.708;9.706;2023-02-01T02:22:04;4.30;99.90
4433;DHT22;2229;48.708;9.706;2023-02-01T02:24:49;4.30;99.90
4433;DHT22;2229;48.708;9.706;2023-02-01T02:27:30;4.40;99.90
4433;DHT22;2229;48.708;9.706;2023-02-01T02:33:44;4.40;99.90
4433;DHT22;2229;48.708;9.706;2023-02-01T02:36:18;4.40;99.90
4433;DHT22;2229;48.708;9.706;2023-02-01T02:38:52;4.70;99.90
4433;DHT22;2229;48.708;9.706;2023-02-01T02:41:30;4.50;99.90
4433;DHT22;2229;48.708;9.706;2023-02-01T02:44:21;4.50;99.90
4433;DHT22;2229;48.708;9.706;2023-02-01T02:47:13;4.50;99.90
4433;DHT22;2229;48.708;9.706;2023-02-01T02:50:09;4.50;99.90
4433;DHT22;2229;48.708;9.706;2023-02-01T02:53:00;4.50;99.90
4433;DHT22;2229;48.708;9.706;2023-02-01T02:55:47;4.50;99.90
4433;DHT22;2229;48.708;9.706;2023-02-01T02:58:17;4.50;99.90
4433;DHT22;2229;48.708;9.706;2023-02-01T03:01:03;4.50;99.90
4433;DHT22;2229;48.708;9.706;2023-02-01T03:03:50;4.50;99.90
4433;DHT22;2229;48.708;9.706;2023-02-01T03:06:38;4.50;99.90
4433;DHT22;2229;48.708;9.706;2023-02-01T03:09:12;4.50;99.90
4433;DHT22;2229;48.708;9.706;2023-02-01T03:11:41;4.50;99.90
4433;DHT22;2229;48.708;9.706;2023-02-01T03:14:26;4.50;99.90
4433;DHT22;2229;48.708;9.706;2023-02-01T03:16:58;4.50;99.90
4433;DHT22;2229;48.708;9.706;2023-02-01T03:19:31;4.60;99.90
4433;DHT22;2229;48.708;9.706;2023-02-01T03:22:04;4.60;99.90
4433;DHT22;2229;48.708;9.706;2023-02-01T03:24:36;4.60;99.90
4433;DHT22;2229;48.708;9.706;2023-02-01T03:27:08;4.60;99.90
4433;DHT22;2229;48.708;9.706;2023-02-01T03:29:41;4.60;99.90
4433;DHT22;2229;48.708;9.706;2023-02-01T03:32:12;4.60;99.90
4433;DHT22;2229;48.708;9.706;2023-02-01T03:34:39;4.60;99.90
4433;DHT22;2229;48.708;9.706;2023-02-01T03:37:11;4.60;99.90
4433;DHT22;2229;48.708;9.706;2023-02-01T03:39:42;4.60;99.90
4433;DHT22;2229;48.708;9.706;2023-02-01T03:42:16;4.60;99.90
4433;DHT22;2229;48.708;9.706;2023-02-01T03:44:49;4.50;99.90
4433;DHT22;2229;48.708;9.706;2023-02-01T03:47:20;4.50;99.90
4433;DHT22;2229;48.708;9.706;2023-02-01T03:49:54;4.50;99.90
4433;DHT22;2229;48.708;9.706;2023-02-01T03:52:27;4.50;99.90
4433;DHT22;2229;48.708;9.706;2023-02-01T03:54:56;4.50;99.90
4433;DHT22;2229;48.708;9.706;2023-02-01T03:57:29;4.50;99.90
4433;DHT22;2229;48.708;9.706;2023-02-01T04:00:05;4.40;99.90
4433;DHT22;2229;48.708;9.706;2023-02-01T04:02:39;4.40;99.90
4433;DHT22;2229;48.708;9.706;2023-02-01T04:05:08;4.40;99.90
4433;DHT22;2229;48.708;9.706;2023-02-01T04:07:40;4.40;99.90
4433;DHT22;2229;48.708;9.706;2023-02-01T04:10:09;4.40;99.90
4433;DHT22;2229;48.708;9.706;2023-02-01T04:12:37;4.40;99.90
4433;DHT22;2229;48.708;9.706;2023-02-01T04:15:06;4.40;99.90
4433;DHT22;2229;48.708;9.706;2023-02-01T04:17:34;4.40;99.90
4433;DHT22;2229;48.708;9.706;2023-02-01T04:20:01;4.40;99.90
4433;DHT22;2229;48.708;9.706;2023-02-01T04:22:30;4.40;99.90
4433;DHT22;2229;48.708;9.706;2023-02-01T04:24:59;4.40;99.90
4433;DHT22;2229;48.708;9.706;2023-02-01T04:27:26;4.40;99.90
4433;DHT22;2229;48.708;9.706;2023-02-01T04:29:54;4.50;99.90
4433;DHT22;2229;48.708;9.706;2023-02-01T04:32:22;4.50;99.90
4433;DHT22;2229;48.708;9.706;2023-02-01T04:34:49;4.60;99.90
4433;DHT22;2229;48.708;9.706;2023-02-01T04:37:16;4.60;99.90
4433;DHT22;2229;48.708;9.706;2023-02-01T04:39:43;4.60;99.90
4433;DHT22;2229;48.708;9.706;2023-02-01T04:42:12;4.60;99.90
4433;DHT22;2229;48.708;9.706;2023-02-01T04:44:39;4.60;99.90
4433;DHT22;2229;48.708;9.706;2023-02-01T04:47:07;4.60;99.90
4433;DHT22;2229;48.708;9.706;2023-02-01T04:49:35;4.60;99.90
4433;DHT22;2229;48.708;9.706;2023-02-01T04:52:02;4.60;99.90
4433;DHT22;2229;48.708;9.706;2023-02-01T04:54:29;4.60;99.90
4433;DHT22;2229;48.708;9.706;2023-02-01T04:56:56;4.60;99.90
4433;DHT22;2229;48.708;9.706;2023-02-01T04:59:25;4.60;99.90
4433;DHT22;2229;48.708;9.706;2023-02-01T05:01:54;4.60;99.90
4433;DHT22;2229;48.708;9.706;2023-02-01T05:04:21;4.60;99.90
4433;DHT22;2229;48.708;9.706;2023-02-01T05:06:48;4.50;99.90
4433;DHT22;2229;48.708;9.706;2023-02-01T05:09:15;4.50;99.90
4433;DHT22;2229;48.708;9.706;2023-02-01T05:11:42;4.50;99.90
4433;DHT22;2229;48.708;9.706;2023-02-01T05:14:28;4.40;99.90
4433;DHT22;2229;48.708;9.706;2023-02-01T05:16:56;4.40;99.90
4433;DHT22;2229;48.708;9.706;2023-02-01T05:19:23;4.40;99.90
4433;DHT22;2229;48.708;9.706;2023-02-01T05:21:50;4.20;99.90
4433;DHT22;2229;48.708;9.706;2023-02-01T05:24:17;4.40;99.90
4433;DHT22;2229;48.708;9.706;2023-02-01T05:26:46;4.50;99.90
4433;DHT22;2229;48.708;9.706;2023-02-01T05:29:14;4.50;99.90
4433;DHT22;2229;48.708;9.706;2023-02-01T05:31:45;4.50;99.90
4433;DHT22;2229;48.708;9.706;2023-02-01T05:34:14;4.50;99.90
4433;DHT22;2229;48.708;9.706;2023-02-01T05:36:42;4.60;99.90
4433;DHT22;2229;48.708;9.706;2023-02-01T05:39:09;4.60;99.90
4433;DHT22;2229;48.708;9.706;2023-02-01T05:41:37;4.60;99.90
4433;DHT22;2229;48.708;9.706;2023-02-01T05:44:04;4.60;99.90
4433;DHT22;2229;48.708;9.706;2023-02-01T05:46:33;4.70;99.90
4433;DHT22;2229;48.708;9.706;2023-02-01T05:49:03;4.70;99.90
4433;DHT22;2229;48.708;9.706;2023-02-01T05:51:30;4.70;99.90
4433;DHT22;2229;48.708;9.706;2023-02-01T05:53:57;4.80;99.90
4433;DHT22;2229;48.708;9.706;2023-02-01T05:56:24;4.70;99.90
4433;DHT22;2229;48.708;9.706;2023-02-01T05:58:52;4.70;99.90
4433;DHT22;2229;48.708;9.706;2023-02-01T06:01:19;4.70;99.90
4433;DHT22;2229;48.708;9.706;2023-02-01T06:03:46;5.00;99.90
4433;DHT22;2229;48.708;9.706;2023-02-01T06:06:15;5.10;99.90
4433;DHT22;2229;48.708;9.706;2023-02-01T06:08:44;5.10;99.90
4433;DHT22;2229;48.708;9.706;2023-02-01T06:11:12;5.00;99.90
4433;DHT22;2229;48.708;9.706;2023-02-01T06:13:41;4.90;99.90
4433;DHT22;2229;48.708;9.706;2023-02-01T06:16:08;4.90;99.90
4433;DHT22;2229;48.708;9.706;2023-02-01T06:18:36;4.90;99.90
4433;DHT22;2229;48.708;9.706;2023-02-01T06:21:04;4.80;99.90
4433;DHT22;2229;48.708;9.706;2023-02-01T06:23:32;4.80;99.90
4433;DHT22;2229;48.708;9.706;2023-02-01T06:26:01;4.80;99.90
4433;DHT22;2229;48.708;9.706;2023-02-01T06:28:30;4.80;99.90
4433;DHT22;2229;48.708;9.706;2023-02-01T06:30:57;4.80;99.90
4433;DHT22;2229;48.708;9.706;2023-02-01T06:33:25;4.80;99.90
4433;DHT22;2229;48.708;9.706;2023-02-01T06:36:00;4.80;99.90
4433;DHT22;2229;48.708;9.706;2023-02-01T06:38:29;4.70;99.90
4433;DHT22;2229;48.708;9.706;2023-02-01T06:40:58;4.70;99.90
4433;DHT22;2229;48.708;9.706;2023-02-01T06:43:26;4.70;99.90
4433;DHT22;2229;48.708;9.706;2023-02-01T06:45:58;4.70;99.90
4433;DHT22;2229;48.708;9.706;2023-02-01T06:48:26;4.60;99.90
4433;DHT22;2229;48.708;9.706;2023-02-01T06:50:54;4.60;99.90
4433;DHT22;2229;48.708;9.706;2023-02-01T06:53:21;4.60;99.90
4433;DHT22;2229;48.708;9.706;2023-02-01T06:55:52;4.50;99.90
4433;DHT22;2229;48.708;9.706;2023-02-01T06:58:21;4.60;99.90
4433;DHT22;2229;48.708;9.706;2023-02-01T07:00:49;4.50;99.90
4433;DHT22;2229;48.708;9.706;2023-02-01T07:03:16;4.50;99.90
4433;DHT22;2229;48.708;9.706;2023-02-01T07:05:43;4.50;99.90
4433;DHT22;2229;48.708;9.706;2023-02-01T07:08:11;4.60;99.90
4433;DHT22;2229;48.708;9.706;2023-02-01T07:10:38;4.60;99.90
4433;DHT22;2229;48.708;9.706;2023-02-01T07:13:05;4.60;99.90
4433;DHT22;2229;48.708;9.706;2023-02-01T07:15:34;4.60;99.90
4433;DHT22;2229;48.708;9.706;2023-02-01T07:18:01;4.70;99.90
4433;DHT22;2229;48.708;9.706;2023-02-01T07:20:28;4.70;99.90
4433;DHT22;2229;48.708;9.706;2023-02-01T07:22:56;4.70;99.90
4433;DHT22;2229;48.708;9.706;2023-02-01T07:25:23;4.80;99.90
4433;DHT22;2229;48.708;9.706;2023-02-01T07:27:51;4.70;99.90
4433;DHT22;2229;48.708;9.706;2023-02-01T07:30:18;4.80;99.90
4433;DHT22;2229;48.708;9.706;2023-02-01T07:32:48;4.70;99.90
4433;DHT22;2229;48.708;9.706;2023-02-01T07:35:15;4.70;99.90
4433;DHT22;2229;48.708;9.706;2023-02-01T07:37:43;4.70;99.90
4433;DHT22;2229;48.708;9.706;2023-02-01T07:40:11;4.70;99.90
4433;DHT22;2229;48.708;9.706;2023-02-01T07:42:38;4.70;99.90
4433;DHT22;2229;48.708;9.706;2023-02-01T07:45:06;4.80;99.90
4433;DHT22;2229;48.708;9.706;2023-02-01T07:47:34;4.80;99.90
4433;DHT22;2229;48.708;9.706;2023-02-01T07:50:03;4.80;99.90
4433;DHT22;2229;48.708;9.706;2023-02-01T07:52:30;4.80;99.90
4433;DHT22;2229;48.708;9.706;2023-02-01T07:54:57;4.90;99.90
4433;DHT22;2229;48.708;9.706;2023-02-01T07:57:25;4.90;99.90
4433;DHT22;2229;48.708;9.706;2023-02-01T07:59:52;4.90;99.90
4433;DHT22;2229;48.708;9.706;2023-02-01T08:02:41;4.90;99.90
4433;DHT22;2229;48.708;9.706;2023-02-01T08:05:09;4.90;99.90
4433;DHT22;2229;48.708;9.706;2023-02-01T08:07:36;4.90;99.90
4433;DHT22;2229;48.708;9.706;2023-02-01T08:10:04;4.90;99.90
4433;DHT22;2229;48.708;9.706;2023-02-01T08:12:36;4.90;99.90
4433;DHT22;2229;48.708;9.706;2023-02-01T08:15:04;4.90;99.90
4433;DHT22;2229;48.708;9.706;2023-02-01T08:17:32;4.90;99.90
4433;DHT22;2229;48.708;9.706;2023-02-01T08:20:00;4.90;99.90
4433;DHT22;2229;48.708;9.706;2023-02-01T08:22:32;5.00;99.90
4433;DHT22;2229;48.708;9.706;2023-02-01T08:25:00;4.90;99.90
4433;DHT22;2229;48.708;9.706;2023-02-01T08:27:28;4.90;99.90
4433;DHT22;2229;48.708;9.706;2023-02-01T08:29:55;5.00;99.90
4433;DHT22;2229;48.708;9.706;2023-02-01T08:32:22;5.00;99.90
4433;DHT22;2229;48.708;9.706;2023-02-01T08:34:50;5.00;99.90
4433;DHT22;2229;48.708;9.706;2023-02-01T08:37:17;5.00;99.90
4433;DHT22;2229;48.708;9.706;2023-02-01T08:39:46;5.00;99.90
4433;DHT22;2229;48.708;9.706;2023-02-01T08:42:17;5.00;99.90
4433;DHT22;2229;48.708;9.706;2023-02-01T08:45:02;5.20;99.90
4433;DHT22;2229;48.708;9.706;2023-02-01T08:47:30;5.10;99.90
4433;DHT22;2229;48.708;9.706;2023-02-01T08:49:58;5.20;99.90
4433;DHT22;2229;48.708;9.706;2023-02-01T08:52:25;5.30;99.90
4433;DHT22;2229;48.708;9.706;2023-02-01T08:54:54;5.30;99.90
4433;DHT22;2229;48.708;9.706;2023-02-01T08:57:21;5.40;99.90
4433;DHT22;2229;48.708;9.706;2023-02-01T08:59:49;5.40;99.90
4433;DHT22;2229;48.708;9.706;2023-02-01T09:02:17;5.50;99.90
4433;DHT22;2229;48.708;9.706;2023-02-01T09:04:44;5.50;99.90
4433;DHT22;2229;48.708;9.706;2023-02-01T09:07:11;5.30;99.90
4433;DHT22;2229;48.708;9.706;2023-02-01T09:09:39;5.40;99.90
4433;DHT22;2229;48.708;9.706;2023-02-01T09:12:10;5.50;99.90
4433;DHT22;2229;48.708;9.706;2023-02-01T09:14:38;5.50;99.90
4433;DHT22;2229;48.708;9.706;2023-02-01T09:17:05;5.50;99.90
4433;DHT22;2229;48.708;9.706;2023-02-01T09:19:32;5.50;99.90
4433;DHT22;2229;48.708;9.706;2023-02-01T09:21:59;5.50;99.90
4433;DHT22;2229;48.708;9.706;2023-02-01T09:24:27;5.50;99.90
4433;DHT22;2229;48.708;9.706;2023-02-01T09:26:54;5.60;99.90
4433;DHT22;2229;48.708;9.706;2023-02-01T09:29:23;5.70;99.90
4433;DHT22;2229;48.708;9.706;2023-02-01T09:31:50;5.70;99.90
4433;DHT22;2229;48.708;9.706;2023-02-01T09:34:17;5.80;99.80
4433;DHT22;2229;48.708;9.706;2023-02-01T09:36:45;5.80;99.60
4433;DHT22;2229;48.708;9.706;2023-02-01T09:39:12;5.80;99.50
4433;DHT22;2229;48.708;9.706;2023-02-01T09:41:48;5.80;99.40
4433;DHT22;2229;48.708;9.706;2023-02-01T09:44:30;5.70;99.30
4433;DHT22;2229;48.708;9.706;2023-02-01T09:47:00;5.70;99.20
4433;DHT22;2229;48.708;9.706;2023-02-01T09:49:29;5.60;99.10
4433;DHT22;2229;48.708;9.706;2023-02-01T09:51:59;5.60;99.20
4433;DHT22;2229;48.708;9.706;2023-02-01T09:54:33;5.60;99.20
4433;DHT22;2229;48.708;9.706;2023-02-01T09:57:08;5.60;99.10
4433;DHT22;2229;48.708;9.706;2023-02-01T09:59:41;5.50;99.00
4433;DHT22;2229;48.708;9.706;2023-02-01T10:02:14;5.40;99.20
4433;DHT22;2229;48.708;9.706;2023-02-01T10:04:42;5.40;99.50
4433;DHT22;2229;48.708;9.706;2023-02-01T10:07:19;5.30;99.50
4433;DHT22;2229;48.708;9.706;2023-02-01T10:09:58;5.30;99.70
4433;DHT22;2229;48.708;9.706;2023-02-01T10:12:51;5.30;99.70
4433;DHT22;2229;48.708;9.706;2023-02-01T10:18:29;5.30;99.70
4433;DHT22;2229;48.708;9.706;2023-02-01T10:21:05;5.40;99.80
4433;DHT22;2229;48.708;9.706;2023-02-01T10:24:01;5.40;99.80
4433;DHT22;2229;48.708;9.706;2023-02-01T10:26:33;5.50;99.60
4433;DHT22;2229;48.708;9.706;2023-02-01T10:29:03;5.50;99.40
4433;DHT22;2229;48.708;9.706;2023-02-01T10:31:36;5.50;99.20
4433;DHT22;2229;48.708;9.706;2023-02-01T10:34:14;5.50;99.10
4433;DHT22;2229;48.708;9.706;2023-02-01T10:36:50;5.50;99.00
4433;DHT22;2229;48.708;9.706;2023-02-01T10:39:19;5.50;98.90
4433;DHT22;2229;48.708;9.706;2023-02-01T10:41:47;5.50;98.90
4433;DHT22;2229;48.708;9.706;2023-02-01T10:44:16;5.50;99.10
4433;DHT22;2229;48.708;9.706;2023-02-01T10:46:47;5.50;99.20
4433;DHT22;2229;48.708;9.706;2023-02-01T10:49:17;5.50;99.10
4433;DHT22;2229;48.708;9.706;2023-02-01T10:51:55;5.50;99.10
4433;DHT22;2229;48.708;9.706;2023-02-01T10:54:33;5.50;98.90
4433;DHT22;2229;48.708;9.706;2023-02-01T10:57:01;5.60;98.90
4433;DHT22;2229;48.708;9.706;2023-02-01T10:59:29;5.60;98.90
4433;DHT22;2229;48.708;9.706;2023-02-01T11:02:01;5.60;98.70
4433;DHT22;2229;48.708;9.706;2023-02-01T11:04:33;5.70;98.80
4433;DHT22;2229;48.708;9.706;2023-02-01T11:07:06;5.70;98.70
4433;DHT22;2229;48.708;9.706;2023-02-01T11:09:39;5.80;98.80
4433;DHT22;2229;48.708;9.706;2023-02-01T11:12:27;5.90;98.30
4433;DHT22;2229;48.708;9.706;2023-02-01T11:15:11;5.90;97.90
4433;DHT22;2229;48.708;9.706;2023-02-01T11:17:43;5.90;98.00
4433;DHT22;2229;48.708;9.706;2023-02-01T11:20:14;5.90;97.70
4433;DHT22;2229;48.708;9.706;2023-02-01T11:22:46;5.80;97.40
4433;DHT22;2229;48.708;9.706;2023-02-01T11:25:16;5.80;97.30
4433;DHT22;2229;48.708;9.706;2023-02-01T11:27:44;5.70;97.20
4433;DHT22;2229;48.708;9.706;2023-02-01T11:30:16;5.70;97.50
4433;DHT22;2229;48.708;9.706;2023-02-01T11:32:48;5.70;97.50
4433;DHT22;2229;48.708;9.706;2023-02-01T11:35:19;5.70;97.30
4433;DHT22;2229;48.708;9.706;2023-02-01T11:37:54;5.70;97.40
4433;DHT22;2229;48.708;9.706;2023-02-01T11:40:28;5.70;97.40
4433;DHT22;2229;48.708;9.706;2023-02-01T11:42:57;5.70;97.20
4433;DHT22;2229;48.708;9.706;2023-02-01T11:45:27;5.70;97.30
4433;DHT22;2229;48.708;9.706;2023-02-01T11:47:57;5.80;97.20
4433;DHT22;2229;48.708;9.706;2023-02-01T11:50:30;5.80;97.20
4433;DHT22;2229;48.708;9.706;2023-02-01T11:53:20;5.90;97.20
4433;DHT22;2229;48.708;9.706;2023-02-01T11:55:56;5.90;96.90
4433;DHT22;2229;48.708;9.706;2023-02-01T11:58:46;5.90;96.50
4433;DHT22;2229;48.708;9.706;2023-02-01T12:01:36;5.90;96.40
4433;DHT22;2229;48.708;9.706;2023-02-01T12:04:19;5.90;96.50
4433;DHT22;2229;48.708;9.706;2023-02-01T12:06:53;5.90;96.30
4433;DHT22;2229;48.708;9.706;2023-02-01T12:09:40;5.80;96.30
4433;DHT22;2229;48.708;9.706;2023-02-01T12:12:17;5.80;96.10
4433;DHT22;2229;48.708;9.706;2023-02-01T12:14:59;5.80;96.00
4433;DHT22;2229;48.708;9.706;2023-02-01T12:17:53;5.80;96.10
4433;DHT22;2229;48.708;9.706;2023-02-01T12:20:47;5.90;96.10
4433;DHT22;2229;48.708;9.706;2023-02-01T12:23:27;5.90;96.10
4433;DHT22;2229;48.708;9.706;2023-02-01T12:26:13;6.00;95.90
4433;DHT22;2229;48.708;9.706;2023-02-01T12:29:07;6.00;95.50
4433;DHT22;2229;48.708;9.706;2023-02-01T12:31:49;5.90;95.60
4433;DHT22;2229;48.708;9.706;2023-02-01T12:34:43;6.00;95.70
4433;DHT22;2229;48.708;9.706;2023-02-01T12:37:21;5.90;95.40
4433;DHT22;2229;48.708;9.706;2023-02-01T12:40:02;6.00;95.70
4433;DHT22;2229;48.708;9.706;2023-02-01T12:42:33;5.90;95.60
4433;DHT22;2229;48.708;9.706;2023-02-01T12:45:12;6.00;95.70
4433;DHT22;2229;48.708;9.706;2023-02-01T12:47:44;5.90;95.30
4433;DHT22;2229;48.708;9.706;2023-02-01T12:50:17;5.90;95.30
4433;DHT22;2229;48.708;9.706;2023-02-01T12:52:50;5.90;95.30
4433;DHT22;2229;48.708;9.706;2023-02-01T12:55:22;5.80;95.20
4433;DHT22;2229;48.708;9.706;2023-02-01T12:57:53;5.60;95.00
4433;DHT22;2229;48.708;9.706;2023-02-01T13:00:30;5.80;95.10
4433;DHT22;2229;48.708;9.706;2023-02-01T13:03:03;5.80;95.10
4433;DHT22;2229;48.708;9.706;2023-02-01T13:05:38;5.80;94.90
4433;DHT22;2229;48.708;9.706;2023-02-01T13:08:11;5.80;95.30
4433;DHT22;2229;48.708;9.706;2023-02-01T13:10:45;5.80;95.10
4433;DHT22;2229;48.708;9.706;2023-02-01T13:13:18;5.80;95.10
4433;DHT22;2229;48.708;9.706;2023-02-01T13:15:53;5.80;95.00
4433;DHT22;2229;48.708;9.706;2023-02-01T13:18:36;5.80;95.00
4433;DHT22;2229;48.708;9.706;2023-02-01T13:21:07;5.80;95.00
4433;DHT22;2229;48.708;9.706;2023-02-01T13:23:39;5.70;95.10
4433;DHT22;2229;48.708;9.706;2023-02-01T13:26:06;5.70;95.10
4433;DHT22;2229;48.708;9.706;2023-02-01T13:28:44;5.70;95.20
4433;DHT22;2229;48.708;9.706;2023-02-01T13:31:37;5.70;95.20
4433;DHT22;2229;48.708;9.706;2023-02-01T13:34:38;5.70;95.20
4433;DHT22;2229;48.708;9.706;2023-02-01T13:37:20;5.70;95.40
4433;DHT22;2229;48.708;9.706;2023-02-01T13:40:10;5.70;95.50
4433;DHT22;2229;48.708;9.706;2023-02-01T13:42:47;5.70;95.70
4433;DHT22;2229;48.708;9.706;2023-02-01T13:45:16;5.70;95.60
4433;DHT22;2229;48.708;9.706;2023-02-01T13:47:46;5.70;95.70
4433;DHT22;2229;48.708;9.706;2023-02-01T13:50:21;5.60;95.60
4433;DHT22;2229;48.708;9.706;2023-02-01T13:52:53;5.60;95.70
4433;DHT22;2229;48.708;9.706;2023-02-01T13:55:29;5.60;95.60
4433;DHT22;2229;48.708;9.706;2023-02-01T13:58:11;5.70;95.40
4433;DHT22;2229;48.708;9.706;2023-02-01T14:00:41;5.70;95.40
4433;DHT22;2229;48.708;9.706;2023-02-01T14:03:12;5.70;95.10
4433;DHT22;2229;48.708;9.706;2023-02-01T14:06:02;5.70;95.10
4433;DHT22;2229;48.708;9.706;2023-02-01T14:08:42;5.70;94.80
4433;DHT22;2229;48.708;9.706;2023-02-01T14:11:37;5.70;94.70
4433;DHT22;2229;48.708;9.706;2023-02-01T14:14:39;5.70;94.70
4433;DHT22;2229;48.708;9.706;2023-02-01T14:17:34;6.00;94.80
4433;DHT22;2229;48.708;9.706;2023-02-01T14:23:14;5.60;94.60
4433;DHT22;2229;48.708;9.706;2023-02-01T14:25:42;5.60;94.70
4433;DHT22;2229;48.708;9.706;2023-02-01T14:28:19;5.60;94.80
4433;DHT22;2229;48.708;9.706;2023-02-01T14:30:50;5.50;94.60
4433;DHT22;2229;48.708;9.706;2023-02-01T14:33:22;5.50;94.70
4433;DHT22;2229;48.708;9.706;2023-02-01T14:36:07;5.50;94.80
4433;DHT22;2229;48.708;9.706;2023-02-01T14:38:36;5.50;94.80
4433;DHT22;2229;48.708;9.706;2023-02-01T14:41:26;5.50;94.80
4433;DHT22;2229;48.708;9.706;2023-02-01T14:44:28;5.50;94.90
4433;DHT22;2229;48.708;9.706;2023-02-01T14:47:04;5.50;95.00
4433;DHT22;2229;48.708;9.706;2023-02-01T14:49:32;5.50;95.00
4433;DHT22;2229;48.708;9.706;2023-02-01T14:52:04;5.50;94.90
4433;DHT22;2229;48.708;9.706;2023-02-01T14:54:33;5.50;95.00
4433;DHT22;2229;48.708;9.706;2023-02-01T14:57:01;5.50;95.10
4433;DHT22;2229;48.708;9.706;2023-02-01T14:59:30;5.50;95.00
4433;DHT22;2229;48.708;9.706;2023-02-01T15:02:00;5.50;95.00
4433;DHT22;2229;48.708;9.706;2023-02-01T15:04:41;5.50;95.00
4433;DHT22;2229;48.708;9.706;2023-02-01T15:07:12;5.50;95.00
4433;DHT22;2229;48.708;9.706;2023-02-01T15:09:44;5.50;95.10
4433;DHT22;2229;48.708;9.706;2023-02-01T15:12:16;5.50;95.10
4433;DHT22;2229;48.708;9.706;2023-02-01T15:15:02;5.50;95.00
4433;DHT22;2229;48.708;9.706;2023-02-01T15:17:31;5.50;95.10
4433;DHT22;2229;48.708;9.706;2023-02-01T15:20:01;5.50;95.10
4433;DHT22;2229;48.708;9.706;2023-02-01T15:22:30;5.50;95.10
4433;DHT22;2229;48.708;9.706;2023-02-01T15:24:59;5.50;95.20
4433;DHT22;2229;48.708;9.706;2023-02-01T15:27:27;5.40;95.30
4433;DHT22;2229;48.708;9.706;2023-02-01T15:30:05;5.40;95.40
4433;DHT22;2229;48.708;9.706;2023-02-01T15:32:34;5.40;95.60
4433;DHT22;2229;48.708;9.706;2023-02-01T15:35:30;5.50;95.70
4433;DHT22;2229;48.708;9.706;2023-02-01T15:41:12;5.40;95.80
4433;DHT22;2229;48.708;9.706;2023-02-01T15:43:42;5.40;95.70
4433;DHT22;2229;48.708;9.706;2023-02-01T15:46:16;5.40;95.70
4433;DHT22;2229;48.708;9.706;2023-02-01T15:48:47;5.40;95.80
4433;DHT22;2229;48.708;9.706;2023-02-01T15:51:19;5.40;95.80
4433;DHT22;2229;48.708;9.706;2023-02-01T15:53:50;5.40;95.80
4433;DHT22;2229;48.708;9.706;2023-02-01T15:56:27;5.40;95.80
4433;DHT22;2229;48.708;9.706;2023-02-01T15:58:58;5.40;95.70
4433;DHT22;2229;48.708;9.706;2023-02-01T16:01:27;5.40;95.80
4433;DHT22;2229;48.708;9.706;2023-02-01T16:04:04;5.40;95.70
4433;DHT22;2229;48.708;9.706;2023-02-01T16:06:46;5.40;95.70
4433;DHT22;2229;48.708;9.706;2023-02-01T16:09:15;5.40;95.60
4433;DHT22;2229;48.708;9.706;2023-02-01T16:11:51;5.40;95.60
4433;DHT22;2229;48.708;9.706;2023-02-01T16:14:20;5.40;95.70
4433;DHT22;2229;48.708;9.706;2023-02-01T16:16:51;5.40;95.80
4433;DHT22;2229;48.708;9.706;2023-02-01T16:19:20;5.40;95.70
4433;DHT22;2229;48.708;9.706;2023-02-01T16:21:50;5.40;95.80
4433;DHT22;2229;48.708;9.706;2023-02-01T16:24:17;5.40;95.70
4433;DHT22;2229;48.708;9.706;2023-02-01T16:26:45;5.40;95.80
4433;DHT22;2229;48.708;9.706;2023-02-01T16:29:14;5.40;95.90
4433;DHT22;2229;48.708;9.706;2023-02-01T16:31:42;5.40;95.80
4433;DHT22;2229;48.708;9.706;2023-02-01T16:34:14;5.40;95.70
4433;DHT22;2229;48.708;9.706;2023-02-01T16:36:43;5.40;95.70
4433;DHT22;2229;48.708;9.706;2023-02-01T16:39:13;5.40;95.80
4433;DHT22;2229;48.708;9.706;2023-02-01T16:41:40;5.40;95.70
4433;DHT22;2229;48.708;9.706;2023-02-01T16:44:08;5.40;95.80
4433;DHT22;2229;48.708;9.706;2023-02-01T16:46:39;5.40;95.80
4433;DHT22;2229;48.708;9.706;2023-02-01T16:49:18;5.40;95.90
4433;DHT22;2229;48.708;9.706;2023-02-01T16:51:48;5.30;95.90
4433;DHT22;2229;48.708;9.706;2023-02-01T16:54:18;5.30;95.90
4433;DHT22;2229;48.708;9.706;2023-02-01T16:56:47;5.50;95.90
4433;DHT22;2229;48.708;9.706;2023-02-01T16:59:14;5.20;95.80
4433;DHT22;2229;48.708;9.706;2023-02-01T17:01:41;5.30;95.80
4433;DHT22;2229;48.708;9.706;2023-02-01T17:04:09;5.30;95.90